sensor_id;sensor_type;location;lat;lon;timestamp;temperature;humidity
3954;DHT22;1991;48.682;9.030;2023-02-03T00:00:54;4.50;99.90
3954;DHT22;1991;48.682;9.030;2023-02-03T00:03:19;4.50;99.90
3954;DHT22;1991;48.682;9.030;2023-02-03T00:05:45;4.50;99.90
3954;DHT22;1991;48.682;9.030;2023-02-03T00:08:12;4.50;99.90
3954;DHT22;1991;48.682;9.030;2023-02-03T00:10:38;4.40;99.90
3954;DHT22;1991;48.682;9.030;2023-02-03T00:13:05;4.50;99.90
3954;DHT22;1991;48.682;9.030;2023-02-03T00:15:31;4.40;99.90
3954;DHT22;1991;48.682;9.030;2023-02-03T00:17:57;4.50;99.90
3954;DHT22;1991;48.682;9.030;2023-02-03T00:20:23;4.40;99.90
3954;DHT22;1991;48.682;9.030;2023-02-03T00:22:48;4.50;99.90
3954;DHT22;1991;48.682;9.030;2023-02-03T00:25:14;4.50;99.90
3954;DHT22;1991;48.682;9.030;2023-02-03T00:27:39;4.40;99.90
3954;DHT22;1991;48.682;9.030;2023-02-03T00:30:05;4.40;99.90
3954;DHT22;1991;48.682;9.030;2023-02-03T00:32:31;4.40;99.90
3954;DHT22;1991;48.682;9.030;2023-02-03T00:34:57;4.40;99.90
3954;DHT22;1991;48.682;9.030;2023-02-03T00:37:22;4.40;99.90
3954;DHT22;1991;48.682;9.030;2023-02-03T00:39:48;4.40;99.90
3954;DHT22;1991;48.682;9.030;2023-02-03T00:42:14;4.40;99.90
3954;DHT22;1991;48.682;9.030;2023-02-03T00:44:40;4.40;99.90
3954;DHT22;1991;48.682;9.030;2023-02-03T00:47:05;4.40;99.90
3954;DHT22;1991;48.682;9.030;2023-02-03T00:49:31;4.40;99.90
3954;DHT22;1991;48.682;9.030;2023-02-03T00:51:57;4.40;99.90
3954;DHT22;1991;48.682;9.030;2023-02-03T00:54:22;4.40;99.90
3954;DHT22;1991;48.682;9.030;2023-02-03T00:56:48;4.40;99.90
3954;DHT22;1991;48.682;9.030;2023-02-03T00:59:13;4.40;99.90
3954;DHT22;1991;48.682;9.030;2023-02-03T01:01:39;4.40;99.90
3954;DHT22;1991;48.682;9.030;2023-02-03T01:04:05;4.40;99.90
3954;DHT22;1991;48.682;9.030;2023-02-03T01:06:30;4.40;99.90
3954;DHT22;1991;48.682;9.030;2023-02-03T01:08:56;4.40;99.90
3954;DHT22;1991;48.682;9.030;2023-02-03T01:11:24;4.40;99.90
3954;DHT22;1991;48.682;9.030;2023-02-03T01:13:56;4.40;99.90
3954;DHT22;1991;48.682;9.030;2023-02-03T01:16:24;4.40;99.90
3954;DHT22;1991;48.682;9.030;2023-02-03T01:18:49;4.40;99.90
3954;DHT22;1991;48.682;9.030;2023-02-03T01:21:18;4.40;99.90
3954;DHT22;1991;48.682;9.030;2023-02-03T01:23:44;4.40;99.90
3954;DHT22;1991;48.682;9.030;2023-02-03T01:26:12;4.40;99.90
3954;DHT22;1991;48.682;9.030;2023-02-03T01:28:39;4.40;99.90
3954;DHT22;1991;48.682;9.030;2023-02-03T01:31:14;4.40;99.90
3954;DHT22;1991;48.682;9.030;2023-02-03T01:33:40;4.40;99.90
3954;DHT22;1991;48.682;9.030;2023-02-03T01:36:07;4.40;99.90
3954;DHT22;1991;48.682;9.030;2023-02-03T01:38:33;4.40;99.90
3954;DHT22;1991;48.682;9.030;2023-02-03T01:40:58;4.50;99.90
3954;DHT22;1991;48.682;9.030;2023-02-03T01:43:29;4.50;99.90
3954;DHT22;1991;48.682;9.030;2023-02-03T01:45:56;4.50;99.90
3954;DHT22;1991;48.682;9.030;2023-02-03T01:48:22;4.50;99.90
3954;DHT22;1991;48.682;9.030;2023-02-03T01:50:48;4.50;99.90
3954;DHT22;1991;48.682;9.030;2023-02-03T01:53:14;4.50;99.90
3954;DHT22;1991;48.682;9.030;2023-02-03T01:55:42;4.50;99.90
3954;DHT22;1991;48.682;9.030;2023-02-03T01:58:22;4.50;99.90
3954;DHT22;1991;48.682;9.030;2023-02-03T02:00:52;4.50;99.90
3954;DHT22;1991;48.682;9.030;2023-02-03T02:03:21;4.60;99.90
3954;DHT22;1991;48.682;9.030;2023-02-03T02:06:01;4.60;99.90
3954;DHT22;1991;48.682;9.030;2023-02-03T02:08:29;4.50;99.90
3954;DHT22;1991;48.682;9.030;2023-02-03T02:10:55;4.50;99.90
3954;DHT22;1991;48.682;9.030;2023-02-03T02:13:21;4.50;99.90
3954;DHT22;1991;48.682;9.030;2023-02-03T02:20:53;4.60;99.90
3954;DHT22;1991;48.682;9.030;2023-02-03T02:32:26;4.30;99.90
3954;DHT22;1991;48.682;9.030;2023-02-03T02:35:08;4.30;99.90
3954;DHT22;1991;48.682;9.030;2023-02-03T02:40:31;4.30;99.90
3954;DHT22;1991;48.682;9.030;2023-02-03T02:45:30;4.30;99.90
3954;DHT22;1991;48.682;9.030;2023-02-03T02:48:08;4.30;99.90
3954;DHT22;1991;48.682;9.030;2023-02-03T02:50:40;4.30;99.90
3954;DHT22;1991;48.682;9.030;2023-02-03T02:53:07;4.30;99.90
3954;DHT22;1991;48.682;9.030;2023-02-03T02:55:36;4.40;99.90
3954;DHT22;1991;48.682;9.030;2023-02-03T02:58:07;4.40;99.90
3954;DHT22;1991;48.682;9.030;2023-02-03T03:00:35;4.40;99.90
3954;DHT22;1991;48.682;9.030;2023-02-03T03:03:12;4.50;99.90
3954;DHT22;1991;48.682;9.030;2023-02-03T03:05:39;4.60;99.90
3954;DHT22;1991;48.682;9.030;2023-02-03T03:08:07;4.60;99.90
3954;DHT22;1991;48.682;9.030;2023-02-03T03:10:35;4.60;99.90
3954;DHT22;1991;48.682;9.030;2023-02-03T03:13:06;4.60;99.90
3954;DHT22;1991;48.682;9.030;2023-02-03T03:15:34;4.60;99.90
3954;DHT22;1991;48.682;9.030;2023-02-03T03:18:17;4.70;99.90
3954;DHT22;1991;48.682;9.030;2023-02-03T03:20:46;4.70;99.90
3954;DHT22;1991;48.682;9.030;2023-02-03T03:23:35;4.70;99.90
3954;DHT22;1991;48.682;9.030;2023-02-03T03:26:13;4.70;99.90
3954;DHT22;1991;48.682;9.030;2023-02-03T03:28:49;4.60;99.90
3954;DHT22;1991;48.682;9.030;2023-02-03T03:31:17;4.50;99.90
3954;DHT22;1991;48.682;9.030;2023-02-03T03:33:43;4.40;99.90
3954;DHT22;1991;48.682;9.030;2023-02-03T03:36:26;4.40;99.90
3954;DHT22;1991;48.682;9.030;2023-02-03T03:39:01;4.40;99.90
3954;DHT22;1991;48.682;9.030;2023-02-03T03:41:54;4.50;99.90
3954;DHT22;1991;48.682;9.030;2023-02-03T03:44:24;4.60;99.90
3954;DHT22;1991;48.682;9.030;2023-02-03T03:47:01;4.60;99.90
3954;DHT22;1991;48.682;9.030;2023-02-03T03:49:28;4.60;99.90
3954;DHT22;1991;48.682;9.030;2023-02-03T03:51:59;4.60;99.90
3954;DHT22;1991;48.682;9.030;2023-02-03T03:54:26;4.60;99.90
3954;DHT22;1991;48.682;9.030;2023-02-03T03:57:13;4.60;99.90
3954;DHT22;1991;48.682;9.030;2023-02-03T03:59:44;4.70;99.90
3954;DHT22;1991;48.682;9.030;2023-02-03T04:02:12;4.70;99.90
3954;DHT22;1991;48.682;9.030;2023-02-03T04:04:38;4.70;99.90
3954;DHT22;1991;48.682;9.030;2023-02-03T04:07:05;4.70;99.90
3954;DHT22;1991;48.682;9.030;2023-02-03T04:09:31;4.70;99.90
3954;DHT22;1991;48.682;9.030;2023-02-03T04:11:56;4.70;99.90
3954;DHT22;1991;48.682;9.030;2023-02-03T04:14:25;4.70;99.90
3954;DHT22;1991;48.682;9.030;2023-02-03T04:16:51;4.70;99.90
3954;DHT22;1991;48.682;9.030;2023-02-03T04:19:16;4.70;99.90
3954;DHT22;1991;48.682;9.030;2023-02-03T04:21:42;4.70;99.90
3954;DHT22;1991;48.682;9.030;2023-02-03T04:24:08;4.70;99.90
3954;DHT22;1991;48.682;9.030;2023-02-03T04:26:33;4.60;99.90
3954;DHT22;1991;48.682;9.030;2023-02-03T04:28:59;4.60;99.90
3954;DHT22;1991;48.682;9.030;2023-02-03T04:31:24;4.60;99.90
3954;DHT22;1991;48.682;9.030;2023-02-03T04:33:50;4.60;99.90
3954;DHT22;1991;48.682;9.030;2023-02-03T04:36:16;4.60;99.90
3954;DHT22;1991;48.682;9.030;2023-02-03T04:38:41;4.60;99.90
3954;DHT22;1991;48.682;9.030;2023-02-03T04:41:07;4.60;99.90
3954;DHT22;1991;48.682;9.030;2023-02-03T04:43:32;4.60;99.90
3954;DHT22;1991;48.682;9.030;2023-02-03T04:45:59;4.60;99.90
3954;DHT22;1991;48.682;9.030;2023-02-03T04:48:25;4.60;99.90
3954;DHT22;1991;48.682;9.030;2023-02-03T04:50:51;4.60;99.90
3954;DHT22;1991;48.682;9.030;2023-02-03T04:53:16;4.60;99.90
3954;DHT22;1991;48.682;9.030;2023-02-03T04:55:45;4.60;99.90
3954;DHT22;1991;48.682;9.030;2023-02-03T04:58:11;4.70;99.90
3954;DHT22;1991;48.682;9.030;2023-02-03T05:00:37;4.70;99.90
3954;DHT22;1991;48.682;9.030;2023-02-03T05:03:03;4.60;99.90
3954;DHT22;1991;48.682;9.030;2023-02-03T05:05:28;4.60;99.90
3954;DHT22;1991;48.682;9.030;2023-02-03T05:07:54;4.60;99.90
3954;DHT22;1991;48.682;9.030;2023-02-03T05:10:20;4.60;99.90
3954;DHT22;1991;48.682;9.030;2023-02-03T05:12:45;4.50;99.90
3954;DHT22;1991;48.682;9.030;2023-02-03T05:15:11;4.50;99.90
3954;DHT22;1991;48.682;9.030;2023-02-03T05:17:36;4.50;99.90
3954;DHT22;1991;48.682;9.030;2023-02-03T05:20:05;4.60;99.90
3954;DHT22;1991;48.682;9.030;2023-02-03T05:22:30;4.60;99.90
3954;DHT22;1991;48.682;9.030;2023-02-03T05:24:56;4.60;99.90
3954;DHT22;1991;48.682;9.030;2023-02-03T05:27:22;4.50;99.90
3954;DHT22;1991;48.682;9.030;2023-02-03T05:29:47;4.60;99.90
3954;DHT22;1991;48.682;9.030;2023-02-03T05:32:13;4.60;99.90
3954;DHT22;1991;48.682;9.030;2023-02-03T05:34:38;4.50;99.90
3954;DHT22;1991;48.682;9.030;2023-02-03T05:37:04;4.50;99.90
3954;DHT22;1991;48.682;9.030;2023-02-03T05:39:29;4.50;99.90
3954;DHT22;1991;48.682;9.030;2023-02-03T05:41:55;4.60;99.90
3954;DHT22;1991;48.682;9.030;2023-02-03T05:44:25;4.50;99.90
3954;DHT22;1991;48.682;9.030;2023-02-03T05:46:53;4.60;99.90
3954;DHT22;1991;48.682;9.030;2023-02-03T05:49:18;4.60;99.90
3954;DHT22;1991;48.682;9.030;2023-02-03T05:51:45;4.60;99.90
3954;DHT22;1991;48.682;9.030;2023-02-03T05:54:11;4.60;99.90
3954;DHT22;1991;48.682;9.030;2023-02-03T05:56:37;4.50;99.90
3954;DHT22;1991;48.682;9.030;2023-02-03T05:59:03;4.50;99.90
3954;DHT22;1991;48.682;9.030;2023-02-03T06:01:29;4.50;99.90
3954;DHT22;1991;48.682;9.030;2023-02-03T06:03:55;4.50;99.90
3954;DHT22;1991;48.682;9.030;2023-02-03T06:06:20;4.50;99.90
3954;DHT22;1991;48.682;9.030;2023-02-03T06:08:46;4.50;99.90
3954;DHT22;1991;48.682;9.030;2023-02-03T06:11:12;4.50;99.90
3954;DHT22;1991;48.682;9.030;2023-02-03T06:13:37;4.60;99.90
3954;DHT22;1991;48.682;9.030;2023-02-03T06:16:03;4.60;99.90
3954;DHT22;1991;48.682;9.030;2023-02-03T06:18:30;4.50;99.90
3954;DHT22;1991;48.682;9.030;2023-02-03T06:20:55;4.60;99.90
3954;DHT22;1991;48.682;9.030;2023-02-03T06:23:21;4.60;99.90
3954;DHT22;1991;48.682;9.030;2023-02-03T06:25:47;4.60;99.90
3954;DHT22;1991;48.682;9.030;2023-02-03T06:28:13;4.60;99.90
3954;DHT22;1991;48.682;9.030;2023-02-03T06:30:39;4.60;99.90
3954;DHT22;1991;48.682;9.030;2023-02-03T06:33:05;4.60;99.90
3954;DHT22;1991;48.682;9.030;2023-02-03T06:35:30;4.60;99.90
3954;DHT22;1991;48.682;9.030;2023-02-03T06:37:56;4.60;99.90
3954;DHT22;1991;48.682;9.030;2023-02-03T06:40:22;4.60;99.90
3954;DHT22;1991;48.682;9.030;2023-02-03T06:42:47;4.60;99.90
3954;DHT22;1991;48.682;9.030;2023-02-03T06:45:13;4.50;99.90
3954;DHT22;1991;48.682;9.030;2023-02-03T06:47:40;4.50;99.90
3954;DHT22;1991;48.682;9.030;2023-02-03T06:50:06;4.50;99.90
3954;DHT22;1991;48.682;9.030;2023-02-03T06:52:32;4.50;99.90
3954;DHT22;1991;48.682;9.030;2023-02-03T06:54:58;4.50;99.90
3954;DHT22;1991;48.682;9.030;2023-02-03T06:57:23;4.40;99.90
3954;DHT22;1991;48.682;9.030;2023-02-03T06:59:49;4.40;99.90
3954;DHT22;1991;48.682;9.030;2023-02-03T07:02:15;4.30;99.90
3954;DHT22;1991;48.682;9.030;2023-02-03T07:04:40;4.30;99.90
3954;DHT22;1991;48.682;9.030;2023-02-03T07:07:10;4.30;99.90
3954;DHT22;1991;48.682;9.030;2023-02-03T07:09:35;4.30;99.90
3954;DHT22;1991;48.682;9.030;2023-02-03T07:12:01;4.20;99.90
3954;DHT22;1991;48.682;9.030;2023-02-03T07:14:26;4.20;99.90
3954;DHT22;1991;48.682;9.030;2023-02-03T07:16:52;4.20;99.90
3954;DHT22;1991;48.682;9.030;2023-02-03T07:19:18;4.20;99.90
3954;DHT22;1991;48.682;9.030;2023-02-03T07:21:44;4.20;99.90
3954;DHT22;1991;48.682;9.030;2023-02-03T07:24:09;4.20;99.90
3954;DHT22;1991;48.682;9.030;2023-02-03T07:26:35;4.20;99.90
3954;DHT22;1991;48.682;9.030;2023-02-03T07:29:00;4.20;99.90
3954;DHT22;1991;48.682;9.030;2023-02-03T07:31:26;4.20;99.90
3954;DHT22;1991;48.682;9.030;2023-02-03T07:33:52;4.20;99.90
3954;DHT22;1991;48.682;9.030;2023-02-03T07:36:17;4.20;99.90
3954;DHT22;1991;48.682;9.030;2023-02-03T07:38:43;4.20;99.90
3954;DHT22;1991;48.682;9.030;2023-02-03T07:41:08;4.30;99.90
3954;DHT22;1991;48.682;9.030;2023-02-03T07:43:34;4.30;99.90
3954;DHT22;1991;48.682;9.030;2023-02-03T07:45:59;4.30;99.90
3954;DHT22;1991;48.682;9.030;2023-02-03T07:48:26;4.40;99.90
3954;DHT22;1991;48.682;9.030;2023-02-03T07:50:52;4.40;99.90
3954;DHT22;1991;48.682;9.030;2023-02-03T07:53:17;4.40;99.90
3954;DHT22;1991;48.682;9.030;2023-02-03T07:55:43;4.40;99.90
3954;DHT22;1991;48.682;9.030;2023-02-03T07:58:09;4.40;99.90
3954;DHT22;1991;48.682;9.030;2023-02-03T08:00:35;4.40;99.90
3954;DHT22;1991;48.682;9.030;2023-02-03T08:03:01;4.40;99.90
3954;DHT22;1991;48.682;9.030;2023-02-03T08:05:26;4.50;99.90
3954;DHT22;1991;48.682;9.030;2023-02-03T08:07:52;4.40;99.90
3954;DHT22;1991;48.682;9.030;2023-02-03T08:10:17;4.50;99.90
3954;DHT22;1991;48.682;9.030;2023-02-03T08:12:43;4.50;99.90
3954;DHT22;1991;48.682;9.030;2023-02-03T08:15:11;4.60;99.90
3954;DHT22;1991;48.682;9.030;2023-02-03T08:17:37;4.60;99.90
3954;DHT22;1991;48.682;9.030;2023-02-03T08:20:06;4.60;99.90
3954;DHT22;1991;48.682;9.030;2023-02-03T08:22:32;4.60;99.90
3954;DHT22;1991;48.682;9.030;2023-02-03T08:24:57;4.60;99.90
3954;DHT22;1991;48.682;9.030;2023-02-03T08:27:23;4.70;99.90
3954;DHT22;1991;48.682;9.030;2023-02-03T08:29:49;4.70;99.90
3954;DHT22;1991;48.682;9.030;2023-02-03T08:32:19;4.80;99.90
3954;DHT22;1991;48.682;9.030;2023-02-03T08:34:46;4.80;99.90
3954;DHT22;1991;48.682;9.030;2023-02-03T08:37:14;4.80;99.90
3954;DHT22;1991;48.682;9.030;2023-02-03T08:39:40;4.80;99.90
3954;DHT22;1991;48.682;9.030;2023-02-03T08:42:06;4.90;99.90
3954;DHT22;1991;48.682;9.030;2023-02-03T08:44:32;4.80;99.90
3954;DHT22;1991;48.682;9.030;2023-02-03T08:46:59;4.90;99.90
3954;DHT22;1991;48.682;9.030;2023-02-03T08:49:26;5.00;99.90
3954;DHT22;1991;48.682;9.030;2023-02-03T08:51:53;5.00;99.90
3954;DHT22;1991;48.682;9.030;2023-02-03T08:54:19;5.10;99.90
3954;DHT22;1991;48.682;9.030;2023-02-03T08:56:45;5.20;99.90
3954;DHT22;1991;48.682;9.030;2023-02-03T09:11:52;5.40;99.90
3954;DHT22;1991;48.682;9.030;2023-02-03T09:14:24;5.70;99.90
3954;DHT22;1991;48.682;9.030;2023-02-03T09:16:51;6.10;99.90
3954;DHT22;1991;48.682;9.030;2023-02-03T09:19:17;6.10;99.90
3954;DHT22;1991;48.682;9.030;2023-02-03T09:21:43;6.00;99.90
3954;DHT22;1991;48.682;9.030;2023-02-03T09:24:08;6.00;99.90
3954;DHT22;1991;48.682;9.030;2023-02-03T09:26:34;6.00;99.90
3954;DHT22;1991;48.682;9.030;2023-02-03T22:11:36;6.60;99.90
3954;DHT22;1991;48.682;9.030;2023-02-03T22:14:01;6.70;99.90
3954;DHT22;1991;48.682;9.030;2023-02-03T22:16:27;6.70;99.90
3954;DHT22;1991;48.682;9.030;2023-02-03T22:18:53;6.70;99.90
3954;DHT22;1991;48.682;9.030;2023-02-03T22:21:19;6.70;99.90
3954;DHT22;1991;48.682;9.030;2023-02-03T22:23:45;6.70;99.90
3954;DHT22;1991;48.682;9.030;2023-02-03T22:26:11;6.70;99.90
3954;DHT22;1991;48.682;9.030;2023-02-03T22:28:38;6.70;99.90
3954;DHT22;1991;48.682;9.030;2023-02-03T22:31:05;6.70;99.90
3954;DHT22;1991;48.682;9.030;2023-02-03T22:33:32;6.70;99.90
3954;DHT22;1991;48.682;9.030;2023-02-03T22:35:58;6.80;99.90
3954;DHT22;1991;48.682;9.030;2023-02-03T22:38:24;6.70;99.90
3954;DHT22;1991;48.682;9.030;2023-02-03T22:40:49;6.70;99.90
3954;DHT22;1991;48.682;9.030;2023-02-03T22:43:15;6.80;99.90
3954;DHT22;1991;48.682;9.030;2023-02-03T22:45:40;6.70;99.90
3954;DHT22;1991;48.682;9.030;2023-02-03T22:48:06;6.70;99.90
3954;DHT22;1991;48.682;9.030;2023-02-03T22:50:32;6.70;99.90
3954;DHT22;1991;48.682;9.030;2023-02-03T22:52:57;6.70;99.90
3954;DHT22;1991;48.682;9.030;2023-02-03T22:55:23;6.70;99.90
3954;DHT22;1991;48.682;9.030;2023-02-03T22:57:49;6.70;99.90
3954;DHT22;1991;48.682;9.030;2023-02-03T23:00:19;6.70;99.90
3954;DHT22;1991;48.682;9.030;2023-02-03T23:02:45;6.80;99.90
3954;DHT22;1991;48.682;9.030;2023-02-03T23:05:12;6.80;99.90
3954;DHT22;1991;48.682;9.030;2023-02-03T23:07:38;6.70;99.90
3954;DHT22;1991;48.682;9.030;2023-02-03T23:10:06;6.70;99.90
3954;DHT22;1991;48.682;9.030;2023-02-03T23:12:32;6.70;99.90
3954;DHT22;1991;48.682;9.030;2023-02-03T23:14:58;6.70;99.90
3954;DHT22;1991;48.682;9.030;2023-02-03T23:17:24;6.70;99.90
3954;DHT22;1991;48.682;9.030;2023-02-03T23:19:50;6.70;99.90
3954;DHT22;1991;48.682;9.030;2023-02-03T23:22:15;6.70;99.90
3954;DHT22;1991;48.682;9.030;2023-02-03T23:24:41;6.60;99.90
3954;DHT22;1991;48.682;9.030;2023-02-03T23:27:08;6.60;99.90
3954;DHT22;1991;48.682;9.030;2023-02-03T23:29:33;6.60;99.90
3954;DHT22;1991;48.682;9.030;2023-02-03T23:32:03;6.60;99.90
3954;DHT22;1991;48.682;9.030;2023-02-03T23:34:29;6.60;99.90
3954;DHT22;1991;48.682;9.030;2023-02-03T23:37:13;6.60;99.90
3954;DHT22;1991;48.682;9.030;2023-02-03T23:39:38;6.60;99.90
3954;DHT22;1991;48.682;9.030;2023-02-03T23:42:04;6.60;99.90
3954;DHT22;1991;48.682;9.030;2023-02-03T23:44:30;6.60;99.90
3954;DHT22;1991;48.682;9.030;2023-02-03T23:46:55;6.60;99.90
3954;DHT22;1991;48.682;9.030;2023-02-03T23:49:21;6.60;99.90
3954;DHT22;1991;48.682;9.030;2023-02-03T23:51:46;6.60;99.90
3954;DHT22;1991;48.682;9.030;2023-02-03T23:54:12;6.70;99.90
3954;DHT22;1991;48.682;9.030;2023-02-03T23:56:37;6.60;99.90
3954;DHT22;1991;48.682;9.030;2023-02-03T23:59:03;6.60;99.90
